sensor_id;sensor_type;location;lat;lon;timestamp;P1;durP1;ratioP1;P2;durP2;ratioP2
7108;SDS011;29079;41.930;25.558;2022-08-16T00:01:01;13.90;;;11.70;;
7108;SDS011;29079;41.930;25.558;2022-08-16T00:03:33;12.90;;;10.88;;
7108;SDS011;29079;41.930;25.558;2022-08-16T00:06:05;13.00;;;11.63;;
7108;SDS011;29079;41.930;25.558;2022-08-16T00:08:37;12.98;;;11.57;;
7108;SDS011;29079;41.930;25.558;2022-08-16T00:11:13;13.35;;;11.18;;
7108;SDS011;29079;41.930;25.558;2022-08-16T00:13:46;16.33;;;11.75;;
7108;SDS011;29079;41.930;25.558;2022-08-16T00:16:23;16.13;;;12.02;;
7108;SDS011;29079;41.930;25.558;2022-08-16T00:19:14;16.15;;;12.07;;
7108;SDS011;29079;41.930;25.558;2022-08-16T00:21:50;14.80;;;11.48;;
7108;SDS011;29079;41.930;25.558;2022-08-16T00:24:28;12.75;;;11.05;;
7108;SDS011;29079;41.930;25.558;2022-08-16T00:27:02;10.75;;;9.65;;
7108;SDS011;29079;41.930;25.558;2022-08-16T00:29:37;11.65;;;10.45;;
7108;SDS011;29079;41.930;25.558;2022-08-16T00:32:09;17.13;;;11.15;;
7108;SDS011;29079;41.930;25.558;2022-08-16T00:34:46;13.05;;;11.13;;
7108;SDS011;29079;41.930;25.558;2022-08-16T00:37:21;12.93;;;11.15;;
7108;SDS011;29079;41.930;25.558;2022-08-16T00:40:13;13.93;;;11.38;;
7108;SDS011;29079;41.930;25.558;2022-08-16T00:43:04;16.38;;;12.27;;
7108;SDS011;29079;41.930;25.558;2022-08-16T00:45:49;13.15;;;11.75;;
7108;SDS011;29079;41.930;25.558;2022-08-16T00:48:25;12.73;;;11.45;;
7108;SDS011;29079;41.930;25.558;2022-08-16T00:51:11;15.45;;;12.05;;
7108;SDS011;29079;41.930;25.558;2022-08-16T00:53:44;14.98;;;12.95;;
7108;SDS011;29079;41.930;25.558;2022-08-16T00:56:15;13.73;;;11.55;;
7108;SDS011;29079;41.930;25.558;2022-08-16T00:59:10;14.07;;;12.63;;
7108;SDS011;29079;41.930;25.558;2022-08-16T01:01:44;14.13;;;12.10;;
7108;SDS011;29079;41.930;25.558;2022-08-16T01:04:16;13.15;;;11.75;;
7108;SDS011;29079;41.930;25.558;2022-08-16T01:06:58;17.42;;;13.00;;
7108;SDS011;29079;41.930;25.558;2022-08-16T01:09:35;14.98;;;12.85;;
7108;SDS011;29079;41.930;25.558;2022-08-16T01:12:10;13.82;;;11.70;;
7108;SDS011;29079;41.930;25.558;2022-08-16T01:14:55;14.15;;;12.65;;
7108;SDS011;29079;41.930;25.558;2022-08-16T01:17:29;14.30;;;12.45;;
7108;SDS011;29079;41.930;25.558;2022-08-16T01:20:07;13.13;;;11.38;;
7108;SDS011;29079;41.930;25.558;2022-08-16T01:22:54;13.75;;;11.70;;
7108;SDS011;29079;41.930;25.558;2022-08-16T01:25:37;14.02;;;11.52;;
7108;SDS011;29079;41.930;25.558;2022-08-16T01:28:27;16.08;;;12.00;;
7108;SDS011;29079;41.930;25.558;2022-08-16T01:31:01;12.23;;;10.77;;
7108;SDS011;29079;41.930;25.558;2022-08-16T01:33:32;15.45;;;12.73;;
7108;SDS011;29079;41.930;25.558;2022-08-16T01:36:04;13.07;;;11.68;;
7108;SDS011;29079;41.930;25.558;2022-08-16T01:38:41;18.25;;;11.88;;
7108;SDS011;29079;41.930;25.558;2022-08-16T01:41:22;14.75;;;11.43;;
7108;SDS011;29079;41.930;25.558;2022-08-16T01:43:56;14.32;;;12.82;;
7108;SDS011;29079;41.930;25.558;2022-08-16T01:46:29;14.13;;;11.23;;
7108;SDS011;29079;41.930;25.558;2022-08-16T01:49:08;12.93;;;11.50;;
7108;SDS011;29079;41.930;25.558;2022-08-16T01:51:42;18.02;;;12.63;;
7108;SDS011;29079;41.930;25.558;2022-08-16T01:54:14;15.75;;;12.88;;
7108;SDS011;29079;41.930;25.558;2022-08-16T01:59:30;14.55;;;11.80;;
7108;SDS011;29079;41.930;25.558;2022-08-16T02:02:01;16.63;;;12.10;;
7108;SDS011;29079;41.930;25.558;2022-08-16T02:04:52;16.70;;;12.50;;
7108;SDS011;29079;41.930;25.558;2022-08-16T02:07:22;13.77;;;12.15;;
7108;SDS011;29079;41.930;25.558;2022-08-16T02:09:52;14.20;;;11.35;;
7108;SDS011;29079;41.930;25.558;2022-08-16T02:12:29;14.15;;;12.70;;
7108;SDS011;29079;41.930;25.558;2022-08-16T02:15:20;13.45;;;11.98;;
7108;SDS011;29079;41.930;25.558;2022-08-16T02:17:53;13.98;;;12.48;;
7108;SDS011;29079;41.930;25.558;2022-08-16T02:20:25;13.90;;;12.45;;
7108;SDS011;29079;41.930;25.558;2022-08-16T02:22:56;14.98;;;12.68;;
7108;SDS011;29079;41.930;25.558;2022-08-16T02:25:33;15.05;;;12.70;;
7108;SDS011;29079;41.930;25.558;2022-08-16T02:28:20;16.63;;;11.88;;
7108;SDS011;29079;41.930;25.558;2022-08-16T02:30:53;15.15;;;12.55;;
7108;SDS011;29079;41.930;25.558;2022-08-16T02:33:25;15.27;;;12.60;;
7108;SDS011;29079;41.930;25.558;2022-08-16T02:36:15;14.75;;;12.93;;
7108;SDS011;29079;41.930;25.558;2022-08-16T02:39:07;17.88;;;13.93;;
7108;SDS011;29079;41.930;25.558;2022-08-16T02:41:44;14.23;;;12.73;;
7108;SDS011;29079;41.930;25.558;2022-08-16T02:44:23;17.35;;;12.55;;
7108;SDS011;29079;41.930;25.558;2022-08-16T02:46:55;17.05;;;13.25;;
7108;SDS011;29079;41.930;25.558;2022-08-16T02:49:26;18.25;;;13.25;;
7108;SDS011;29079;41.930;25.558;2022-08-16T02:52:16;16.02;;;12.50;;
7108;SDS011;29079;41.930;25.558;2022-08-16T02:54:57;16.00;;;12.77;;
7108;SDS011;29079;41.930;25.558;2022-08-16T02:57:28;16.10;;;12.45;;
7108;SDS011;29079;41.930;25.558;2022-08-16T03:00:00;20.42;;;13.60;;
7108;SDS011;29079;41.930;25.558;2022-08-16T03:02:54;18.55;;;13.93;;
7108;SDS011;29079;41.930;25.558;2022-08-16T03:05:25;16.80;;;12.60;;
7108;SDS011;29079;41.930;25.558;2022-08-16T03:07:58;16.30;;;13.20;;
7108;SDS011;29079;41.930;25.558;2022-08-16T03:10:28;15.65;;;11.98;;
7108;SDS011;29079;41.930;25.558;2022-08-16T03:13:02;14.30;;;12.23;;
7108;SDS011;29079;41.930;25.558;2022-08-16T03:15:41;18.10;;;12.70;;
7108;SDS011;29079;41.930;25.558;2022-08-16T03:18:16;21.50;;;12.57;;
7108;SDS011;29079;41.930;25.558;2022-08-16T03:21:06;14.75;;;12.73;;
7108;SDS011;29079;41.930;25.558;2022-08-16T03:23:40;14.73;;;13.13;;
7108;SDS011;29079;41.930;25.558;2022-08-16T03:26:12;14.82;;;12.65;;
7108;SDS011;29079;41.930;25.558;2022-08-16T03:28:45;14.25;;;12.75;;
7108;SDS011;29079;41.930;25.558;2022-08-16T03:31:17;15.60;;;13.25;;
7108;SDS011;29079;41.930;25.558;2022-08-16T03:33:48;16.27;;;12.60;;
7108;SDS011;29079;41.930;25.558;2022-08-16T03:36:19;16.13;;;12.43;;
7108;SDS011;29079;41.930;25.558;2022-08-16T03:38:59;18.83;;;12.65;;
7108;SDS011;29079;41.930;25.558;2022-08-16T03:41:30;21.63;;;13.48;;
7108;SDS011;29079;41.930;25.558;2022-08-16T03:44:18;20.20;;;14.20;;
7108;SDS011;29079;41.930;25.558;2022-08-16T03:47:09;19.42;;;13.98;;
7108;SDS011;29079;41.930;25.558;2022-08-16T03:49:46;25.75;;;14.52;;
7108;SDS011;29079;41.930;25.558;2022-08-16T03:52:20;17.50;;;13.10;;
7108;SDS011;29079;41.930;25.558;2022-08-16T03:54:58;18.67;;;13.60;;
7108;SDS011;29079;41.930;25.558;2022-08-16T03:57:28;19.60;;;13.55;;
7108;SDS011;29079;41.930;25.558;2022-08-16T04:00:04;14.90;;;12.95;;
7108;SDS011;29079;41.930;25.558;2022-08-16T04:03:03;17.83;;;14.15;;
7108;SDS011;29079;41.930;25.558;2022-08-16T04:05:38;19.00;;;14.52;;
7108;SDS011;29079;41.930;25.558;2022-08-16T04:08:11;16.13;;;13.82;;
7108;SDS011;29079;41.930;25.558;2022-08-16T04:10:52;16.45;;;14.52;;
7108;SDS011;29079;41.930;25.558;2022-08-16T04:13:26;16.75;;;13.57;;
7108;SDS011;29079;41.930;25.558;2022-08-16T04:16:19;18.65;;;12.98;;
7108;SDS011;29079;41.930;25.558;2022-08-16T04:18:57;20.50;;;14.27;;
7108;SDS011;29079;41.930;25.558;2022-08-16T04:21:30;35.15;;;25.15;;
7108;SDS011;29079;41.930;25.558;2022-08-16T04:24:02;28.17;;;15.88;;
7108;SDS011;29079;41.930;25.558;2022-08-16T04:26:35;19.90;;;14.88;;
7108;SDS011;29079;41.930;25.558;2022-08-16T04:29:14;25.95;;;15.40;;
7108;SDS011;29079;41.930;25.558;2022-08-16T04:31:52;19.67;;;14.90;;
7108;SDS011;29079;41.930;25.558;2022-08-16T04:34:27;28.38;;;15.43;;
7108;SDS011;29079;41.930;25.558;2022-08-16T04:37:00;22.73;;;15.40;;
7108;SDS011;29079;41.930;25.558;2022-08-16T04:39:32;27.20;;;15.82;;
7108;SDS011;29079;41.930;25.558;2022-08-16T04:42:22;35.30;;;18.40;;
7108;SDS011;29079;41.930;25.558;2022-08-16T04:44:56;29.65;;;16.02;;
7108;SDS011;29079;41.930;25.558;2022-08-16T04:47:29;22.80;;;15.27;;
7108;SDS011;29079;41.930;25.558;2022-08-16T04:50:05;31.35;;;16.23;;
7108;SDS011;29079;41.930;25.558;2022-08-16T04:52:43;43.80;;;16.27;;
7108;SDS011;29079;41.930;25.558;2022-08-16T04:55:15;21.90;;;13.98;;
7108;SDS011;29079;41.930;25.558;2022-08-16T04:57:47;19.40;;;14.27;;
7108;SDS011;29079;41.930;25.558;2022-08-16T05:00:22;24.05;;;15.57;;
7108;SDS011;29079;41.930;25.558;2022-08-16T05:03:01;20.05;;;15.40;;
7108;SDS011;29079;41.930;25.558;2022-08-16T05:05:37;20.48;;;16.77;;
7108;SDS011;29079;41.930;25.558;2022-08-16T05:08:12;21.08;;;15.50;;
7108;SDS011;29079;41.930;25.558;2022-08-16T05:10:58;23.30;;;18.88;;
7108;SDS011;29079;41.930;25.558;2022-08-16T05:13:34;23.30;;;16.40;;
7108;SDS011;29079;41.930;25.558;2022-08-16T05:16:10;18.75;;;14.45;;
7108;SDS011;29079;41.930;25.558;2022-08-16T05:18:48;22.17;;;15.05;;
7108;SDS011;29079;41.930;25.558;2022-08-16T05:21:21;23.95;;;14.77;;
7108;SDS011;29079;41.930;25.558;2022-08-16T05:23:54;18.58;;;14.40;;
7108;SDS011;29079;41.930;25.558;2022-08-16T05:26:29;18.00;;;15.55;;
7108;SDS011;29079;41.930;25.558;2022-08-16T05:29:00;18.15;;;15.40;;
7108;SDS011;29079;41.930;25.558;2022-08-16T05:31:32;17.42;;;14.85;;
7108;SDS011;29079;41.930;25.558;2022-08-16T05:34:02;26.23;;;15.50;;
7108;SDS011;29079;41.930;25.558;2022-08-16T05:36:48;18.20;;;15.60;;
7108;SDS011;29079;41.930;25.558;2022-08-16T05:39:20;18.98;;;13.85;;
7108;SDS011;29079;41.930;25.558;2022-08-16T05:41:52;26.02;;;15.68;;
7108;SDS011;29079;41.930;25.558;2022-08-16T05:44:23;20.92;;;14.75;;
7108;SDS011;29079;41.930;25.558;2022-08-16T05:46:53;17.85;;;14.23;;
7108;SDS011;29079;41.930;25.558;2022-08-16T05:49:28;17.60;;;14.48;;
7108;SDS011;29079;41.930;25.558;2022-08-16T05:52:08;16.33;;;14.32;;
7108;SDS011;29079;41.930;25.558;2022-08-16T05:54:44;16.70;;;14.13;;
7108;SDS011;29079;41.930;25.558;2022-08-16T05:57:28;20.10;;;16.17;;
7108;SDS011;29079;41.930;25.558;2022-08-16T06:00:03;18.90;;;13.63;;
7108;SDS011;29079;41.930;25.558;2022-08-16T06:02:37;15.25;;;13.65;;
7108;SDS011;29079;41.930;25.558;2022-08-16T06:05:07;16.48;;;14.23;;
7108;SDS011;29079;41.930;25.558;2022-08-16T06:07:43;18.67;;;13.40;;
7108;SDS011;29079;41.930;25.558;2022-08-16T06:10:26;15.52;;;13.93;;
7108;SDS011;29079;41.930;25.558;2022-08-16T06:13:00;14.38;;;12.45;;
7108;SDS011;29079;41.930;25.558;2022-08-16T06:15:30;16.25;;;13.80;;
7108;SDS011;29079;41.930;25.558;2022-08-16T06:18:03;19.30;;;14.73;;
7108;SDS011;29079;41.930;25.558;2022-08-16T06:20:33;17.58;;;15.13;;
7108;SDS011;29079;41.930;25.558;2022-08-16T06:23:20;23.45;;;15.10;;
7108;SDS011;29079;41.930;25.558;2022-08-16T06:25:51;33.58;;;17.00;;
7108;SDS011;29079;41.930;25.558;2022-08-16T06:28:21;20.95;;;14.93;;
7108;SDS011;29079;41.930;25.558;2022-08-16T06:31:04;17.63;;;15.65;;
7108;SDS011;29079;41.930;25.558;2022-08-16T06:33:39;17.33;;;14.88;;
7108;SDS011;29079;41.930;25.558;2022-08-16T06:36:12;18.98;;;15.10;;
7108;SDS011;29079;41.930;25.558;2022-08-16T06:38:45;24.42;;;15.52;;
7108;SDS011;29079;41.930;25.558;2022-08-16T06:41:24;16.65;;;14.93;;
7108;SDS011;29079;41.930;25.558;2022-08-16T06:43:55;19.25;;;14.55;;
7108;SDS011;29079;41.930;25.558;2022-08-16T06:46:26;18.27;;;14.93;;
7108;SDS011;29079;41.930;25.558;2022-08-16T06:49:01;24.67;;;16.15;;
7108;SDS011;29079;41.930;25.558;2022-08-16T06:51:33;18.05;;;16.17;;
7108;SDS011;29079;41.930;25.558;2022-08-16T06:54:17;23.10;;;16.08;;
7108;SDS011;29079;41.930;25.558;2022-08-16T06:56:47;18.92;;;15.57;;
7108;SDS011;29079;41.930;25.558;2022-08-16T06:59:22;17.35;;;15.45;;
7108;SDS011;29079;41.930;25.558;2022-08-16T07:01:53;21.48;;;15.73;;
7108;SDS011;29079;41.930;25.558;2022-08-16T07:04:25;17.45;;;15.73;;
7108;SDS011;29079;41.930;25.558;2022-08-16T07:07:04;19.73;;;15.98;;
7108;SDS011;29079;41.930;25.558;2022-08-16T07:09:38;22.45;;;16.92;;
7108;SDS011;29079;41.930;25.558;2022-08-16T07:12:09;21.27;;;15.40;;
7108;SDS011;29079;41.930;25.558;2022-08-16T07:14:43;17.65;;;15.85;;
7108;SDS011;29079;41.930;25.558;2022-08-16T07:17:17;17.52;;;15.70;;
7108;SDS011;29079;41.930;25.558;2022-08-16T07:19:49;18.65;;;15.65;;
7108;SDS011;29079;41.930;25.558;2022-08-16T07:22:40;17.25;;;15.27;;
7108;SDS011;29079;41.930;25.558;2022-08-16T07:25:21;19.30;;;16.02;;
7108;SDS011;29079;41.930;25.558;2022-08-16T07:27:52;19.95;;;16.98;;
7108;SDS011;29079;41.930;25.558;2022-08-16T07:30:23;17.77;;;15.48;;
7108;SDS011;29079;41.930;25.558;2022-08-16T07:33:13;17.55;;;15.75;;
7108;SDS011;29079;41.930;25.558;2022-08-16T07:36:04;15.88;;;14.18;;
7108;SDS011;29079;41.930;25.558;2022-08-16T07:38:37;15.23;;;13.73;;
7108;SDS011;29079;41.930;25.558;2022-08-16T07:41:08;36.95;;;16.75;;
7108;SDS011;29079;41.930;25.558;2022-08-16T07:43:39;19.20;;;13.75;;
7108;SDS011;29079;41.930;25.558;2022-08-16T07:46:10;15.90;;;14.25;;
7108;SDS011;29079;41.930;25.558;2022-08-16T07:49:00;17.05;;;14.40;;
7108;SDS011;29079;41.930;25.558;2022-08-16T07:51:39;17.23;;;13.15;;
7108;SDS011;29079;41.930;25.558;2022-08-16T07:54:09;16.45;;;14.55;;
7108;SDS011;29079;41.930;25.558;2022-08-16T07:56:50;14.73;;;12.38;;
7108;SDS011;29079;41.930;25.558;2022-08-16T07:59:21;16.67;;;14.20;;
7108;SDS011;29079;41.930;25.558;2022-08-16T08:02:13;16.88;;;15.10;;
7108;SDS011;29079;41.930;25.558;2022-08-16T08:04:48;18.08;;;14.35;;
7108;SDS011;29079;41.930;25.558;2022-08-16T08:07:18;18.65;;;13.43;;
7108;SDS011;29079;41.930;25.558;2022-08-16T08:09:48;14.40;;;11.65;;
7108;SDS011;29079;41.930;25.558;2022-08-16T08:12:20;17.45;;;12.40;;
7108;SDS011;29079;41.930;25.558;2022-08-16T08:15:04;13.95;;;12.55;;
7108;SDS011;29079;41.930;25.558;2022-08-16T08:20:12;14.93;;;12.95;;
7108;SDS011;29079;41.930;25.558;2022-08-16T08:25:28;16.63;;;14.45;;
7108;SDS011;29079;41.930;25.558;2022-08-16T08:28:20;22.52;;;13.93;;
7108;SDS011;29079;41.930;25.558;2022-08-16T08:30:50;14.75;;;13.25;;
7108;SDS011;29079;41.930;25.558;2022-08-16T08:33:29;14.93;;;12.52;;
7108;SDS011;29079;41.930;25.558;2022-08-16T08:36:02;13.68;;;12.30;;
7108;SDS011;29079;41.930;25.558;2022-08-16T08:38:34;12.07;;;10.80;;
7108;SDS011;29079;41.930;25.558;2022-08-16T08:41:13;12.85;;;11.52;;
7108;SDS011;29079;41.930;25.558;2022-08-16T08:43:48;12.35;;;11.15;;
7108;SDS011;29079;41.930;25.558;2022-08-16T08:46:19;17.75;;;13.05;;
7108;SDS011;29079;41.930;25.558;2022-08-16T08:48:50;13.23;;;11.88;;
7108;SDS011;29079;41.930;25.558;2022-08-16T08:51:27;13.43;;;12.02;;
7108;SDS011;29079;41.930;25.558;2022-08-16T08:54:04;13.13;;;11.73;;
7108;SDS011;29079;41.930;25.558;2022-08-16T08:56:36;14.60;;;12.23;;
7108;SDS011;29079;41.930;25.558;2022-08-16T08:59:14;12.32;;;10.85;;
7108;SDS011;29079;41.930;25.558;2022-08-16T09:01:47;14.98;;;11.60;;
7108;SDS011;29079;41.930;25.558;2022-08-16T09:04:25;12.95;;;11.30;;
7108;SDS011;29079;41.930;25.558;2022-08-16T09:06:56;12.98;;;11.68;;
7108;SDS011;29079;41.930;25.558;2022-08-16T09:09:28;17.80;;;12.52;;
7108;SDS011;29079;41.930;25.558;2022-08-16T09:12:02;13.35;;;12.05;;
7108;SDS011;29079;41.930;25.558;2022-08-16T09:14:36;12.82;;;11.60;;
7108;SDS011;29079;41.930;25.558;2022-08-16T09:17:18;16.70;;;13.05;;
7108;SDS011;29079;41.930;25.558;2022-08-16T09:20:09;13.45;;;12.05;;
7108;SDS011;29079;41.930;25.558;2022-08-16T09:22:44;15.70;;;13.18;;
7108;SDS011;29079;41.930;25.558;2022-08-16T09:25:20;16.05;;;12.88;;
7108;SDS011;29079;41.930;25.558;2022-08-16T09:28:00;14.13;;;12.63;;
7108;SDS011;29079;41.930;25.558;2022-08-16T09:30:38;14.32;;;12.90;;
7108;SDS011;29079;41.930;25.558;2022-08-16T09:33:13;14.35;;;12.93;;
7108;SDS011;29079;41.930;25.558;2022-08-16T09:35:48;19.45;;;12.13;;
7108;SDS011;29079;41.930;25.558;2022-08-16T09:38:21;13.60;;;12.20;;
7108;SDS011;29079;41.930;25.558;2022-08-16T09:41:00;15.98;;;12.43;;
7108;SDS011;29079;41.930;25.558;2022-08-16T09:43:42;13.23;;;11.93;;
7108;SDS011;29079;41.930;25.558;2022-08-16T09:46:29;12.77;;;11.48;;
7108;SDS011;29079;41.930;25.558;2022-08-16T09:49:16;13.02;;;11.82;;
7108;SDS011;29079;41.930;25.558;2022-08-16T09:51:48;12.50;;;11.30;;
7108;SDS011;29079;41.930;25.558;2022-08-16T09:54:25;14.90;;;10.75;;
7108;SDS011;29079;41.930;25.558;2022-08-16T09:57:00;12.48;;;11.18;;
7108;SDS011;29079;41.930;25.558;2022-08-16T09:59:30;11.63;;;10.52;;
7108;SDS011;29079;41.930;25.558;2022-08-16T10:02:08;11.35;;;9.75;;
7108;SDS011;29079;41.930;25.558;2022-08-16T10:04:54;16.08;;;10.27;;
7108;SDS011;29079;41.930;25.558;2022-08-16T10:07:27;14.20;;;9.77;;
7108;SDS011;29079;41.930;25.558;2022-08-16T10:10:19;10.40;;;9.30;;
7108;SDS011;29079;41.930;25.558;2022-08-16T10:12:59;11.00;;;8.80;;
7108;SDS011;29079;41.930;25.558;2022-08-16T10:15:43;8.88;;;8.07;;
7108;SDS011;29079;41.930;25.558;2022-08-16T10:18:24;14.48;;;9.25;;
7108;SDS011;29079;41.930;25.558;2022-08-16T10:21:16;13.43;;;9.80;;
7108;SDS011;29079;41.930;25.558;2022-08-16T10:23:49;18.25;;;10.88;;
7108;SDS011;29079;41.930;25.558;2022-08-16T10:26:21;10.07;;;8.95;;
7108;SDS011;29079;41.930;25.558;2022-08-16T10:29:12;9.35;;;8.45;;
7108;SDS011;29079;41.930;25.558;2022-08-16T10:31:48;12.38;;;8.98;;
7108;SDS011;29079;41.930;25.558;2022-08-16T10:34:22;10.20;;;8.02;;
7108;SDS011;29079;41.930;25.558;2022-08-16T10:37:00;10.45;;;9.35;;
7108;SDS011;29079;41.930;25.558;2022-08-16T10:39:30;8.95;;;8.13;;
7108;SDS011;29079;41.930;25.558;2022-08-16T10:42:09;13.10;;;8.70;;
7108;SDS011;29079;41.930;25.558;2022-08-16T10:44:41;14.75;;;8.68;;
7108;SDS011;29079;41.930;25.558;2022-08-16T10:47:21;12.00;;;9.43;;
7108;SDS011;29079;41.930;25.558;2022-08-16T10:49:53;10.20;;;9.20;;
7108;SDS011;29079;41.930;25.558;2022-08-16T10:52:24;9.50;;;8.23;;
7108;SDS011;29079;41.930;25.558;2022-08-16T10:54:59;10.18;;;9.18;;
7108;SDS011;29079;41.930;25.558;2022-08-16T10:57:49;9.23;;;8.32;;
7108;SDS011;29079;41.930;25.558;2022-08-16T11:00:24;8.27;;;7.55;;
7108;SDS011;29079;41.930;25.558;2022-08-16T11:02:54;8.82;;;8.02;;
7108;SDS011;29079;41.930;25.558;2022-08-16T11:05:31;9.38;;;8.48;;
7108;SDS011;29079;41.930;25.558;2022-08-16T11:08:21;9.63;;;8.65;;
7108;SDS011;29079;41.930;25.558;2022-08-16T11:11:03;9.93;;;9.02;;
7108;SDS011;29079;41.930;25.558;2022-08-16T11:13:46;9.88;;;8.65;;
7108;SDS011;29079;41.930;25.558;2022-08-16T11:16:27;10.55;;;8.13;;
7108;SDS011;29079;41.930;25.558;2022-08-16T11:19:17;10.95;;;9.88;;
7108;SDS011;29079;41.930;25.558;2022-08-16T11:21:51;9.90;;;8.90;;
7108;SDS011;29079;41.930;25.558;2022-08-16T11:24:41;10.20;;;8.88;;
7108;SDS011;29079;41.930;25.558;2022-08-16T11:27:13;9.45;;;8.55;;
7108;SDS011;29079;41.930;25.558;2022-08-16T11:29:52;11.27;;;9.00;;
7108;SDS011;29079;41.930;25.558;2022-08-16T11:32:24;11.60;;;8.73;;
7108;SDS011;29079;41.930;25.558;2022-08-16T11:35:02;9.30;;;8.32;;
7108;SDS011;29079;41.930;25.558;2022-08-16T11:37:44;12.85;;;8.50;;
7108;SDS011;29079;41.930;25.558;2022-08-16T11:40:37;9.40;;;8.60;;
7108;SDS011;29079;41.930;25.558;2022-08-16T11:43:12;9.80;;;8.85;;
7108;SDS011;29079;41.930;25.558;2022-08-16T11:45:45;10.13;;;9.23;;
7108;SDS011;29079;41.930;25.558;2022-08-16T11:48:22;8.95;;;8.15;;
7108;SDS011;29079;41.930;25.558;2022-08-16T11:50:53;10.27;;;9.27;;
7108;SDS011;29079;41.930;25.558;2022-08-16T11:53:25;10.95;;;9.88;;
7108;SDS011;29079;41.930;25.558;2022-08-16T11:56:03;12.88;;;8.13;;
7108;SDS011;29079;41.930;25.558;2022-08-16T11:58:34;12.18;;;8.95;;
7108;SDS011;29079;41.930;25.558;2022-08-16T12:01:08;13.73;;;9.70;;
7108;SDS011;29079;41.930;25.558;2022-08-16T12:03:42;10.85;;;9.73;;
7108;SDS011;29079;41.930;25.558;2022-08-16T12:06:15;9.63;;;8.73;;
7108;SDS011;29079;41.930;25.558;2022-08-16T12:09:00;13.20;;;9.80;;
7108;SDS011;29079;41.930;25.558;2022-08-16T12:11:31;12.02;;;9.88;;
7108;SDS011;29079;41.930;25.558;2022-08-16T12:14:03;9.15;;;8.27;;
7108;SDS011;29079;41.930;25.558;2022-08-16T12:16:34;9.32;;;8.35;;
7108;SDS011;29079;41.930;25.558;2022-08-16T12:19:06;9.50;;;7.93;;
7108;SDS011;29079;41.930;25.558;2022-08-16T12:21:41;9.68;;;8.40;;
7108;SDS011;29079;41.930;25.558;2022-08-16T12:24:28;9.73;;;8.68;;
7108;SDS011;29079;41.930;25.558;2022-08-16T12:26:58;10.77;;;9.50;;
7108;SDS011;29079;41.930;25.558;2022-08-16T12:29:28;12.50;;;9.20;;
7108;SDS011;29079;41.930;25.558;2022-08-16T12:31:58;11.55;;;10.23;;
7108;SDS011;29079;41.930;25.558;2022-08-16T12:34:49;10.77;;;9.85;;
7108;SDS011;29079;41.930;25.558;2022-08-16T12:37:20;9.50;;;8.60;;
7108;SDS011;29079;41.930;25.558;2022-08-16T12:39:53;9.98;;;9.07;;
7108;SDS011;29079;41.930;25.558;2022-08-16T12:42:25;10.48;;;9.50;;
7108;SDS011;29079;41.930;25.558;2022-08-16T12:45:03;14.13;;;9.13;;
7108;SDS011;29079;41.930;25.558;2022-08-16T12:47:35;8.50;;;7.72;;
7108;SDS011;29079;41.930;25.558;2022-08-16T12:50:42;12.60;;;8.05;;
7108;SDS011;29079;41.930;25.558;2022-08-16T12:53:17;8.77;;;7.97;;
7108;SDS011;29079;41.930;25.558;2022-08-16T12:55:50;9.65;;;8.50;;
7108;SDS011;29079;41.930;25.558;2022-08-16T12:58:20;9.65;;;8.15;;
7108;SDS011;29079;41.930;25.558;2022-08-16T13:01:10;10.52;;;9.35;;
7108;SDS011;29079;41.930;25.558;2022-08-16T13:03:42;9.38;;;8.43;;
7108;SDS011;29079;41.930;25.558;2022-08-16T13:06:12;10.68;;;8.85;;
7108;SDS011;29079;41.930;25.558;2022-08-16T13:08:55;10.60;;;8.57;;
7108;SDS011;29079;41.930;25.558;2022-08-16T13:11:33;13.73;;;10.10;;
7108;SDS011;29079;41.930;25.558;2022-08-16T13:14:16;11.32;;;10.23;;
7108;SDS011;29079;41.930;25.558;2022-08-16T13:19:34;12.50;;;10.77;;
7108;SDS011;29079;41.930;25.558;2022-08-16T13:22:25;11.20;;;8.88;;
7108;SDS011;29079;41.930;25.558;2022-08-16T13:24:55;9.40;;;8.25;;
7108;SDS011;29079;41.930;25.558;2022-08-16T13:27:27;16.80;;;8.55;;
7108;SDS011;29079;41.930;25.558;2022-08-16T13:30:17;27.48;;;10.10;;
7108;SDS011;29079;41.930;25.558;2022-08-16T13:33:03;13.32;;;10.60;;
7108;SDS011;29079;41.930;25.558;2022-08-16T13:35:41;19.88;;;11.15;;
7108;SDS011;29079;41.930;25.558;2022-08-16T13:41:05;12.48;;;10.98;;
7108;SDS011;29079;41.930;25.558;2022-08-16T13:43:38;10.63;;;9.55;;
7108;SDS011;29079;41.930;25.558;2022-08-16T13:46:09;20.30;;;12.80;;
7108;SDS011;29079;41.930;25.558;2022-08-16T13:48:39;15.48;;;11.02;;
7108;SDS011;29079;41.930;25.558;2022-08-16T13:51:12;12.82;;;11.52;;
7108;SDS011;29079;41.930;25.558;2022-08-16T13:53:46;27.63;;;13.68;;
7108;SDS011;29079;41.930;25.558;2022-08-16T13:56:31;18.13;;;11.05;;
7108;SDS011;29079;41.930;25.558;2022-08-16T13:59:10;13.48;;;10.20;;
7108;SDS011;29079;41.930;25.558;2022-08-16T14:01:48;25.80;;;12.32;;
7108;SDS011;29079;41.930;25.558;2022-08-16T14:04:24;29.60;;;11.98;;
7108;SDS011;29079;41.930;25.558;2022-08-16T14:06:55;23.73;;;12.45;;
7108;SDS011;29079;41.930;25.558;2022-08-16T14:09:27;21.45;;;12.95;;
7108;SDS011;29079;41.930;25.558;2022-08-16T14:12:01;16.23;;;10.93;;
7108;SDS011;29079;41.930;25.558;2022-08-16T14:14:47;28.73;;;13.15;;
7108;SDS011;29079;41.930;25.558;2022-08-16T14:17:24;19.42;;;12.20;;
7108;SDS011;29079;41.930;25.558;2022-08-16T14:19:55;19.25;;;11.32;;
7108;SDS011;29079;41.930;25.558;2022-08-16T14:22:28;45.78;;;14.93;;
7108;SDS011;29079;41.930;25.558;2022-08-16T14:25:08;23.05;;;12.20;;
7108;SDS011;29079;41.930;25.558;2022-08-16T14:27:44;17.85;;;11.70;;
7108;SDS011;29079;41.930;25.558;2022-08-16T14:30:21;40.17;;;13.27;;
7108;SDS011;29079;41.930;25.558;2022-08-16T14:32:52;29.30;;;12.98;;
7108;SDS011;29079;41.930;25.558;2022-08-16T14:35:24;20.88;;;11.20;;
7108;SDS011;29079;41.930;25.558;2022-08-16T14:38:16;16.73;;;11.23;;
7108;SDS011;29079;41.930;25.558;2022-08-16T14:40:51;11.63;;;10.20;;
7108;SDS011;29079;41.930;25.558;2022-08-16T14:43:23;16.33;;;10.27;;
7108;SDS011;29079;41.930;25.558;2022-08-16T14:45:59;16.05;;;11.30;;
7108;SDS011;29079;41.930;25.558;2022-08-16T14:48:34;20.83;;;10.25;;
7108;SDS011;29079;41.930;25.558;2022-08-16T14:51:04;20.65;;;10.52;;
7108;SDS011;29079;41.930;25.558;2022-08-16T14:53:35;12.27;;;9.90;;
7108;SDS011;29079;41.930;25.558;2022-08-16T14:56:12;10.63;;;9.48;;
7108;SDS011;29079;41.930;25.558;2022-08-16T14:59:03;15.50;;;8.77;;
7108;SDS011;29079;41.930;25.558;2022-08-16T15:01:37;11.60;;;9.23;;
7108;SDS011;29079;41.930;25.558;2022-08-16T15:04:27;11.73;;;8.52;;
7108;SDS011;29079;41.930;25.558;2022-08-16T15:07:17;9.90;;;8.60;;
7108;SDS011;29079;41.930;25.558;2022-08-16T15:09:49;10.23;;;8.47;;
7108;SDS011;29079;41.930;25.558;2022-08-16T15:12:29;22.10;;;9.70;;
7108;SDS011;29079;41.930;25.558;2022-08-16T15:15:06;15.02;;;9.30;;
7108;SDS011;29079;41.930;25.558;2022-08-16T15:17:45;17.35;;;10.13;;
7108;SDS011;29079;41.930;25.558;2022-08-16T15:20:25;15.32;;;8.27;;
7108;SDS011;29079;41.930;25.558;2022-08-16T15:22:58;9.13;;;8.23;;
7108;SDS011;29079;41.930;25.558;2022-08-16T15:25:33;11.38;;;8.45;;
7108;SDS011;29079;41.930;25.558;2022-08-16T15:28:10;9.90;;;8.90;;
7108;SDS011;29079;41.930;25.558;2022-08-16T15:31:00;17.83;;;9.25;;
7108;SDS011;29079;41.930;25.558;2022-08-16T15:33:36;11.40;;;10.20;;
7108;SDS011;29079;41.930;25.558;2022-08-16T15:36:13;45.33;;;15.07;;